createdAt,value
2022-12-18T00:01:45.557Z,8.98
2022-12-18T00:04:22.158Z,9.93
2022-12-18T00:06:49.455Z,8.93
2022-12-18T00:09:15.976Z,8.70
2022-12-18T00:11:42.581Z,7.20
2022-12-18T00:14:11.542Z,8.25
2022-12-18T00:16:38.239Z,7.68
2022-12-18T00:19:06.173Z,8.02
2022-12-18T00:21:33.500Z,8.77
2022-12-18T00:24:00.920Z,7.32
2022-12-18T00:26:30.127Z,7.78
2022-12-18T00:29:00.161Z,7.38
2022-12-18T00:31:27.161Z,7.43
2022-12-18T00:33:58.140Z,7.45
2022-12-18T00:36:30.723Z,7.72
2022-12-18T00:38:59.134Z,6.95
2022-12-18T00:41:44.265Z,7.75
2022-12-18T00:44:13.640Z,6.90
2022-12-18T00:46:40.482Z,7.40
2022-12-18T00:49:07.737Z,7.00
2022-12-18T00:51:34.360Z,6.32
2022-12-18T00:54:00.851Z,6.95
2022-12-18T00:56:27.663Z,7.20
2022-12-18T00:58:54.817Z,6.80
2022-12-18T01:01:21.474Z,6.68
2022-12-18T01:03:48.646Z,6.45
2022-12-18T01:06:16.436Z,6.40
2022-12-18T01:08:43.786Z,6.65
2022-12-18T01:11:15.652Z,6.63
2022-12-18T01:13:42.894Z,6.68
2022-12-18T01:16:10.035Z,6.57
2022-12-18T01:18:36.795Z,6.05
2022-12-18T01:21:10.707Z,6.55
2022-12-18T01:23:38.997Z,6.13
2022-12-18T01:26:08.492Z,6.78
2022-12-18T01:28:35.137Z,6.18
2022-12-18T01:31:23.454Z,6.20
2022-12-18T01:33:51.008Z,5.95
2022-12-18T01:36:29.871Z,5.93
2022-12-18T01:38:56.826Z,5.82
2022-12-18T01:41:27.043Z,6.88
2022-12-18T01:43:58.359Z,6.78
2022-12-18T01:46:27.320Z,6.40
2022-12-18T01:49:00.356Z,6.97
2022-12-18T01:51:30.443Z,6.10
2022-12-18T01:53:58.475Z,6.70
2022-12-18T01:56:25.163Z,6.53
2022-12-18T01:59:00.812Z,6.32
2022-12-18T02:01:29.480Z,6.70
2022-12-18T02:03:56.496Z,6.85
2022-12-18T02:06:34.150Z,6.50
2022-12-18T02:09:20.672Z,8.27
2022-12-18T02:11:56.512Z,8.20
2022-12-18T02:14:41.648Z,6.50
2022-12-18T02:17:17.366Z,6.78
2022-12-18T02:20:23.789Z,7.68
2022-12-18T02:23:04.722Z,8.18
2022-12-18T02:26:02.302Z,8.48
2022-12-18T02:28:33.996Z,7.32
2022-12-18T02:31:04.579Z,8.65
2022-12-18T02:33:31.848Z,7.70
2022-12-18T02:36:00.938Z,8.43
2022-12-18T02:38:29.788Z,7.78
2022-12-18T02:40:57.838Z,8.35
2022-12-18T02:43:24.381Z,9.73
2022-12-18T02:45:57.544Z,9.00
2022-12-18T02:48:31.807Z,8.65
2022-12-18T02:51:07.440Z,7.68
2022-12-18T02:53:42.845Z,8.25
2022-12-18T02:56:23.520Z,7.82
2022-12-18T03:02:54.379Z,6.93
2022-12-18T03:05:28.639Z,7.75
2022-12-18T03:08:04.861Z,7.90
2022-12-18T03:10:34.980Z,8.48
2022-12-18T03:13:07.293Z,8.55
2022-12-18T03:15:56.321Z,8.52
2022-12-18T03:18:39.857Z,7.75
2022-12-18T03:21:09.063Z,7.68
2022-12-18T03:23:41.390Z,7.63
2022-12-18T03:26:12.373Z,7.93
2022-12-18T03:28:44.505Z,7.38
2022-12-18T03:31:13.478Z,7.50
2022-12-18T03:33:47.185Z,8.98
2022-12-18T03:36:13.838Z,6.00
2022-12-18T03:38:40.423Z,7.25
2022-12-18T03:41:25.392Z,7.35
2022-12-18T03:43:57.792Z,6.80
2022-12-18T03:46:30.961Z,7.65
2022-12-18T03:49:12.958Z,8.60
2022-12-18T03:51:56.363Z,8.23
2022-12-18T03:54:23.914Z,8.68
2022-12-18T03:59:23.121Z,7.75
2022-12-18T04:01:53.834Z,7.38
2022-12-18T04:04:22.234Z,8.57
2022-12-18T04:06:51.322Z,8.15
2022-12-18T04:09:19.243Z,7.57
2022-12-18T04:11:47.172Z,7.88
2022-12-18T04:14:17.613Z,6.78
2022-12-18T04:16:44.564Z,7.88
2022-12-18T04:19:11.146Z,8.38
2022-12-18T04:21:38.701Z,7.45
2022-12-18T04:24:05.863Z,7.97
2022-12-18T04:26:32.517Z,6.53
2022-12-18T04:28:59.221Z,6.85
2022-12-18T04:31:26.132Z,7.55
2022-12-18T04:33:53.608Z,6.30
2022-12-18T04:36:20.398Z,7.07
2022-12-18T04:38:46.881Z,6.88
2022-12-18T04:41:13.738Z,6.90
2022-12-18T04:43:40.732Z,6.60
2022-12-18T04:46:09.183Z,6.90
2022-12-18T04:48:36.652Z,7.28
2022-12-18T04:51:04.614Z,7.72
2022-12-18T04:53:31.455Z,6.32
2022-12-18T04:56:06.979Z,6.32
2022-12-18T04:58:33.599Z,6.10
2022-12-18T05:01:00.160Z,6.68
2022-12-18T05:03:26.990Z,5.75
2022-12-18T05:05:53.779Z,7.25
2022-12-18T05:08:20.604Z,6.13
2022-12-18T05:10:47.298Z,7.72
2022-12-18T05:13:14.549Z,6.63
2022-12-18T05:15:43.839Z,6.70
2022-12-18T05:18:10.850Z,6.43
2022-12-18T05:20:37.510Z,6.75
2022-12-18T05:23:03.971Z,5.80
2022-12-18T05:25:31.201Z,5.72
2022-12-18T05:28:00.206Z,6.10
2022-12-18T05:30:27.237Z,6.15
2022-12-18T05:35:21.680Z,5.53
2022-12-18T05:37:48.227Z,5.43
2022-12-18T05:40:14.886Z,5.43
2022-12-18T05:42:41.742Z,6.32
2022-12-18T05:45:08.808Z,5.65
2022-12-18T05:47:35.578Z,6.85
2022-12-18T05:50:02.207Z,6.07
2022-12-18T05:52:28.747Z,6.85
2022-12-18T05:54:55.206Z,7.45
2022-12-18T05:57:21.764Z,6.25
2022-12-18T05:59:48.246Z,6.55
2022-12-18T06:02:14.835Z,6.90
2022-12-18T06:04:41.499Z,6.72
2022-12-18T06:07:08.095Z,8.35
2022-12-18T06:09:34.579Z,7.63
2022-12-18T06:12:01.356Z,6.38
2022-12-18T06:14:28.104Z,7.50
2022-12-18T06:16:54.538Z,7.10
2022-12-18T06:19:21.092Z,7.05
2022-12-18T06:21:47.651Z,8.07
2022-12-18T06:24:14.153Z,7.38
2022-12-18T06:26:40.808Z,7.30
2022-12-18T06:29:07.693Z,7.07
2022-12-18T06:31:34.876Z,7.60
2022-12-18T06:34:04.185Z,6.57
2022-12-18T06:36:31.372Z,6.95
2022-12-18T06:38:59.398Z,7.30
2022-12-18T06:41:26.005Z,6.85
2022-12-18T06:43:56.766Z,6.80
2022-12-18T06:46:24.932Z,8.35
2022-12-18T06:48:51.502Z,7.30
2022-12-18T06:51:20.294Z,7.10
2022-12-18T06:53:47.050Z,8.00
2022-12-18T06:56:14.233Z,7.65
2022-12-18T06:58:41.030Z,7.38
2022-12-18T07:01:11.253Z,6.05
2022-12-18T07:03:39.619Z,6.90
2022-12-18T07:06:07.174Z,5.82
2022-12-18T07:08:34.300Z,6.60
2022-12-18T07:11:04.748Z,7.15
2022-12-18T07:13:31.253Z,6.60
2022-12-18T07:16:15.938Z,7.35
2022-12-18T07:18:46.074Z,7.45
2022-12-18T07:21:19.426Z,5.90
2022-12-18T07:23:48.721Z,6.07
2022-12-18T07:26:17.405Z,6.60
2022-12-18T07:28:44.781Z,6.72
2022-12-18T07:31:21.643Z,6.82
2022-12-18T07:33:49.172Z,7.45
2022-12-18T07:36:15.620Z,7.38
2022-12-18T07:38:42.568Z,8.70
2022-12-18T07:41:12.497Z,7.43
2022-12-18T07:43:40.747Z,7.72
2022-12-18T07:46:10.283Z,7.50
2022-12-18T07:48:37.387Z,6.75
2022-12-18T07:51:06.324Z,7.07
2022-12-18T07:53:34.128Z,8.35
2022-12-18T07:58:56.933Z,6.78
2022-12-18T08:01:23.687Z,7.25
2022-12-18T08:03:52.082Z,7.22
2022-12-18T08:06:22.530Z,7.78
2022-12-18T08:08:55.440Z,7.45
2022-12-18T08:11:24.110Z,5.72
2022-12-18T08:13:50.848Z,7.32
2022-12-18T08:16:18.898Z,6.78
2022-12-18T08:18:46.517Z,8.23
2022-12-18T08:21:19.420Z,7.93
2022-12-18T08:23:49.652Z,6.55
2022-12-18T08:26:18.378Z,7.20
2022-12-18T08:28:45.716Z,6.88
2022-12-18T08:31:12.895Z,7.40
2022-12-18T08:33:41.868Z,7.82
2022-12-18T08:36:10.420Z,8.10
2022-12-18T08:38:37.717Z,10.30
2022-12-18T08:41:07.697Z,8.45
2022-12-18T08:43:53.726Z,8.40
2022-12-18T08:46:21.831Z,7.82
2022-12-18T08:48:49.294Z,9.48
2022-12-18T08:51:20.419Z,8.23
2022-12-18T08:53:47.209Z,8.70
2022-12-18T08:56:14.646Z,8.73
2022-12-18T09:01:11.634Z,9.15
2022-12-18T09:03:39.642Z,9.32
2022-12-18T09:06:07.145Z,8.18
2022-12-18T09:08:34.680Z,8.05
2022-12-18T09:11:01.738Z,9.38
2022-12-18T09:13:28.856Z,8.13
2022-12-18T09:15:56.283Z,8.15
2022-12-18T09:18:24.964Z,9.07
2022-12-18T09:20:53.946Z,8.52
2022-12-18T09:23:21.990Z,9.48
2022-12-18T09:25:49.211Z,10.48
2022-12-18T09:28:18.956Z,9.73
2022-12-18T09:30:48.718Z,10.73
2022-12-18T09:33:16.530Z,11.93
2022-12-18T09:35:45.107Z,9.25
2022-12-18T09:38:18.901Z,9.75
2022-12-18T09:40:57.062Z,9.05
2022-12-18T09:43:45.806Z,10.05
2022-12-18T09:46:20.088Z,8.23
2022-12-18T09:48:52.099Z,10.05
2022-12-18T09:51:30.692Z,12.85
2022-12-18T09:54:02.837Z,13.88
2022-12-18T09:56:32.600Z,9.77
2022-12-18T09:59:00.969Z,15.55
2022-12-18T10:01:36.382Z,8.82
2022-12-18T10:04:09.494Z,11.25
2022-12-18T10:06:55.618Z,8.73
2022-12-18T10:09:38.749Z,8.32
2022-12-18T10:12:29.233Z,8.23
2022-12-18T10:15:10.969Z,8.25
2022-12-18T10:17:55.129Z,7.70
2022-12-18T10:20:27.236Z,9.25
2022-12-18T10:23:00.875Z,8.27
2022-12-18T10:26:00.049Z,8.02
2022-12-18T10:28:28.046Z,8.70
2022-12-18T10:30:54.937Z,7.00
2022-12-18T10:33:24.514Z,7.30
2022-12-18T10:35:52.123Z,6.93
2022-12-18T10:38:18.810Z,8.63
2022-12-18T10:40:52.712Z,8.43
2022-12-18T10:46:12.807Z,6.93
2022-12-18T10:48:49.018Z,8.98
2022-12-18T10:51:26.065Z,8.60
2022-12-18T10:54:30.270Z,8.23
2022-12-18T10:57:15.794Z,8.48
2022-12-18T10:59:53.489Z,7.70
2022-12-18T11:02:40.288Z,9.23
2022-12-18T11:05:30.281Z,9.57
2022-12-18T11:07:58.064Z,8.93
2022-12-18T11:10:31.535Z,8.25
2022-12-18T11:13:16.846Z,8.65
2022-12-18T11:15:43.774Z,8.77
2022-12-18T11:18:25.838Z,8.80
2022-12-18T11:20:59.070Z,7.68
2022-12-18T11:23:27.210Z,8.77
2022-12-18T11:26:00.199Z,8.85
2022-12-18T11:28:32.816Z,9.25
2022-12-18T11:31:19.421Z,8.80
2022-12-18T11:34:29.009Z,8.10
2022-12-18T11:36:59.989Z,8.20
2022-12-18T11:39:41.955Z,9.05
2022-12-18T11:42:12.193Z,8.90
2022-12-18T11:44:51.936Z,9.25
2022-12-18T11:47:45.909Z,8.60
2022-12-18T11:50:23.004Z,8.45
2022-12-18T11:52:55.641Z,8.20
2022-12-18T11:55:24.249Z,8.25
2022-12-18T11:58:16.866Z,10.82
2022-12-18T12:00:58.690Z,9.73
2022-12-18T12:03:45.595Z,9.45
2022-12-18T12:06:17.863Z,11.60
2022-12-18T12:08:53.490Z,9.45
2022-12-18T12:11:19.891Z,9.18
2022-12-18T12:13:46.491Z,9.02
2022-12-18T12:16:33.040Z,9.75
2022-12-18T12:19:19.075Z,9.07
2022-12-18T12:22:04.853Z,9.13
2022-12-18T12:24:44.198Z,10.07
2022-12-18T12:27:42.638Z,9.68
2022-12-18T12:30:20.822Z,9.30
2022-12-18T12:33:09.967Z,10.52
2022-12-18T12:35:53.611Z,10.15
2022-12-18T12:38:34.030Z,9.25
2022-12-18T12:41:05.022Z,8.65
2022-12-18T12:43:50.595Z,9.07
2022-12-18T12:46:22.763Z,9.90
2022-12-18T12:48:55.637Z,8.13
2022-12-18T12:51:25.907Z,8.75
2022-12-18T12:53:55.604Z,9.13
2022-12-18T12:56:23.313Z,9.27
2022-12-18T12:59:00.159Z,8.77
2022-12-18T13:01:37.817Z,8.77
2022-12-18T13:04:21.666Z,8.95
2022-12-18T13:06:53.978Z,9.20
2022-12-18T13:09:21.019Z,9.65
2022-12-18T13:12:07.066Z,9.00
2022-12-18T13:14:41.718Z,8.93
2022-12-18T13:17:20.837Z,9.00
2022-12-18T13:19:52.821Z,10.20
2022-12-18T13:22:42.801Z,11.23
2022-12-18T13:25:29.486Z,9.80
2022-12-18T13:27:59.383Z,9.40
2022-12-18T13:30:34.843Z,9.00
2022-12-18T13:33:22.916Z,9.73
2022-12-18T13:35:50.129Z,9.75
2022-12-18T13:38:35.381Z,10.27
2022-12-18T13:41:22.350Z,9.45
2022-12-18T13:43:51.347Z,9.40
2022-12-18T13:46:30.946Z,9.45
2022-12-18T13:49:02.133Z,9.18
2022-12-18T13:51:31.858Z,9.65
2022-12-18T13:54:06.388Z,10.93
2022-12-18T13:56:35.128Z,9.25
2022-12-18T13:59:24.707Z,9.50
2022-12-18T14:01:59.145Z,8.65
2022-12-18T14:04:30.990Z,9.55
2022-12-18T14:07:16.525Z,9.93
2022-12-18T14:09:47.157Z,9.32
2022-12-18T14:12:37.007Z,9.10
2022-12-18T14:15:05.057Z,10.05
2022-12-18T14:17:33.020Z,9.73
2022-12-18T14:20:01.099Z,9.20
2022-12-18T14:22:30.289Z,9.95
2022-12-18T14:25:15.950Z,9.27
2022-12-18T14:27:49.385Z,8.85
2022-12-18T14:30:25.303Z,9.88
2022-12-18T14:33:15.432Z,9.13
2022-12-18T14:35:44.601Z,8.65
2022-12-18T14:38:17.125Z,9.90
2022-12-18T14:40:44.897Z,9.55
2022-12-18T14:43:12.238Z,9.38
2022-12-18T14:45:47.391Z,9.93
2022-12-18T14:48:22.992Z,10.15
2022-12-18T14:51:02.198Z,9.77
2022-12-18T14:53:46.301Z,9.45
2022-12-18T14:56:18.595Z,9.82
2022-12-18T14:59:00.102Z,9.40
2022-12-18T15:01:30.594Z,10.18
2022-12-18T15:03:59.542Z,10.43
2022-12-18T15:06:29.113Z,10.23
2022-12-18T15:08:56.208Z,10.00
2022-12-18T15:11:41.629Z,9.23
2022-12-18T15:16:55.914Z,9.52
2022-12-18T15:19:26.979Z,9.82
2022-12-18T15:21:53.504Z,9.30
2022-12-18T15:24:27.253Z,9.68
2022-12-18T15:26:54.115Z,10.23
2022-12-18T15:29:23.423Z,10.45
2022-12-18T15:32:19.635Z,11.05
2022-12-18T15:34:46.364Z,10.88
2022-12-18T15:37:13.079Z,9.77
2022-12-18T15:39:40.031Z,10.75
2022-12-18T15:42:28.641Z,10.00
2022-12-18T15:44:55.202Z,10.23
2022-12-18T15:47:21.858Z,11.07
2022-12-18T15:49:48.486Z,9.50
2022-12-18T15:52:15.029Z,10.75
2022-12-18T15:55:00.035Z,9.68
2022-12-18T15:57:27.331Z,10.30
2022-12-18T15:59:58.774Z,12.43
2022-12-18T16:02:28.833Z,10.38
2022-12-18T16:04:55.360Z,9.13
2022-12-18T16:07:25.528Z,10.68
2022-12-18T16:09:53.067Z,10.68
2022-12-18T16:12:24.670Z,12.20
2022-12-18T16:14:51.692Z,10.40
2022-12-18T16:17:18.449Z,12.43
2022-12-18T16:19:45.301Z,9.35
2022-12-18T16:22:28.927Z,9.98
2022-12-18T16:24:57.446Z,11.13
2022-12-18T16:27:24.868Z,12.77
2022-12-18T16:29:51.663Z,11.98
2022-12-18T16:32:21.252Z,12.00
2022-12-18T16:34:48.200Z,13.52
2022-12-18T16:37:16.504Z,12.13
2022-12-18T16:39:43.694Z,11.68
2022-12-18T16:42:20.138Z,10.40
2022-12-18T16:44:49.444Z,10.85
2022-12-18T16:47:17.591Z,10.95
2022-12-18T16:49:49.027Z,14.20
2022-12-18T16:52:16.606Z,14.82
2022-12-18T16:54:44.685Z,10.65
2022-12-18T16:57:17.078Z,11.70
2022-12-18T16:59:44.136Z,12.10
2022-12-18T17:02:24.183Z,13.98
2022-12-18T17:04:57.256Z,12.63
2022-12-18T17:07:25.661Z,13.13
2022-12-18T17:09:53.948Z,11.80
2022-12-18T17:12:21.389Z,11.55
2022-12-18T17:14:47.978Z,12.32
2022-12-18T17:17:23.841Z,11.85
2022-12-18T17:19:51.863Z,14.50
2022-12-18T17:22:18.883Z,13.40
2022-12-18T17:27:12.869Z,11.85
2022-12-18T17:29:45.316Z,12.88
2022-12-18T17:32:13.760Z,12.25
2022-12-18T17:34:40.605Z,12.68
2022-12-18T17:37:07.337Z,11.88
2022-12-18T17:39:34.034Z,17.60
2022-12-18T17:42:01.303Z,12.25
2022-12-18T17:44:27.917Z,15.70
2022-12-18T17:46:54.510Z,13.75
2022-12-18T17:49:21.536Z,11.95
2022-12-18T17:51:48.725Z,13.40
2022-12-18T17:54:15.732Z,13.05
2022-12-18T17:56:42.872Z,13.27
2022-12-18T18:01:42.364Z,12.48
2022-12-18T18:04:11.038Z,11.52
2022-12-18T18:06:37.872Z,12.35
2022-12-18T18:09:15.273Z,13.13
2022-12-18T18:12:02.124Z,12.52
2022-12-18T18:14:28.730Z,13.25
2022-12-18T18:19:24.764Z,12.20
2022-12-18T18:21:53.839Z,12.52
2022-12-18T18:24:23.697Z,18.02
2022-12-18T18:26:50.542Z,10.98
2022-12-18T18:29:20.206Z,12.32
2022-12-18T18:31:47.583Z,11.98
2022-12-18T18:34:16.799Z,13.13
2022-12-18T18:36:43.391Z,12.45
2022-12-18T18:39:10.039Z,14.05
2022-12-18T18:44:04.643Z,11.63
2022-12-18T18:46:31.553Z,12.10
2022-12-18T18:48:58.052Z,11.05
2022-12-18T18:51:24.833Z,12.68
2022-12-18T18:53:53.512Z,13.30
2022-12-18T18:59:08.789Z,11.98
2022-12-18T19:01:35.377Z,13.25
2022-12-18T19:04:02.023Z,13.02
2022-12-18T19:06:29.871Z,13.23
2022-12-18T19:08:58.555Z,13.38
2022-12-18T19:11:45.245Z,12.43
2022-12-18T19:14:14.159Z,11.40
2022-12-18T19:16:41.715Z,14.43
2022-12-18T19:19:08.703Z,12.75
2022-12-18T19:21:37.278Z,11.88
2022-12-18T19:24:04.141Z,13.90
2022-12-18T19:26:30.880Z,13.20
2022-12-18T19:29:02.213Z,12.88
2022-12-18T19:31:34.807Z,11.98
2022-12-18T19:34:04.832Z,12.35
2022-12-18T19:36:32.814Z,11.73
2022-12-18T19:39:01.347Z,10.50
2022-12-18T19:41:32.992Z,12.98
2022-12-18T19:44:01.426Z,11.70
2022-12-18T19:46:34.599Z,13.77
2022-12-18T19:49:02.644Z,11.50
2022-12-18T19:51:30.989Z,11.93
2022-12-18T19:54:01.222Z,11.68
2022-12-18T19:56:31.986Z,12.20
2022-12-18T19:59:00.543Z,12.40
2022-12-18T20:01:28.863Z,13.00
2022-12-18T20:03:56.797Z,12.88
2022-12-18T20:06:46.035Z,12.48
2022-12-18T20:09:12.625Z,11.70
2022-12-18T20:11:42.080Z,14.48
2022-12-18T20:14:10.367Z,13.50
2022-12-18T20:16:37.473Z,10.98
2022-12-18T20:19:05.266Z,11.63
2022-12-18T20:21:31.891Z,11.65
2022-12-18T20:24:00.066Z,12.82
2022-12-18T20:26:27.530Z,13.27
2022-12-18T20:28:54.660Z,13.75
2022-12-18T20:31:22.774Z,12.57
2022-12-18T20:33:51.039Z,11.52
2022-12-18T20:36:22.554Z,12.07
2022-12-18T20:38:54.653Z,11.00
2022-12-18T20:41:24.299Z,11.13
2022-12-18T20:46:18.154Z,12.23
2022-12-18T20:48:45.252Z,12.75
2022-12-18T20:51:17.454Z,16.52
2022-12-18T20:53:45.079Z,13.02
2022-12-18T20:56:20.554Z,14.40
2022-12-18T20:58:49.675Z,11.18
2022-12-18T21:01:20.930Z,11.05
2022-12-18T21:03:48.398Z,11.90
2022-12-18T21:06:16.895Z,11.48
2022-12-18T21:08:43.888Z,13.07
2022-12-18T21:11:35.573Z,11.90
2022-12-18T21:14:04.238Z,13.52
2022-12-18T21:16:30.867Z,13.75
2022-12-18T21:18:57.945Z,11.45
2022-12-18T21:23:54.402Z,12.60
2022-12-18T21:26:26.332Z,11.45
2022-12-18T21:28:58.103Z,11.25
2022-12-18T21:31:27.473Z,11.18
2022-12-18T21:33:56.642Z,10.90
2022-12-18T21:36:30.478Z,11.63
2022-12-18T21:38:59.678Z,11.80
2022-12-18T21:41:45.872Z,12.90
2022-12-18T21:44:18.067Z,14.00
2022-12-18T21:46:52.969Z,15.90
2022-12-18T21:49:22.836Z,13.90
2022-12-18T21:51:52.587Z,16.17
2022-12-18T21:54:19.921Z,12.15
2022-12-18T21:57:01.014Z,11.43
2022-12-18T21:59:30.262Z,12.00
2022-12-18T22:02:00.164Z,11.98
2022-12-18T22:04:27.313Z,10.82
2022-12-18T22:06:54.599Z,11.13
2022-12-18T22:09:23.973Z,12.15
2022-12-18T22:11:51.535Z,12.70
2022-12-18T22:14:17.940Z,11.43
2022-12-18T22:16:44.899Z,13.35
2022-12-18T22:19:12.247Z,11.98
2022-12-18T22:21:43.576Z,12.50
2022-12-18T22:24:14.066Z,12.23
2022-12-18T22:26:41.196Z,12.13
2022-12-18T22:29:32.230Z,11.38
2022-12-18T22:32:01.077Z,10.40
2022-12-18T22:34:28.240Z,11.65
2022-12-18T22:36:54.823Z,12.60
2022-12-18T22:39:23.731Z,12.18
2022-12-18T22:41:51.516Z,12.00
2022-12-18T22:44:18.735Z,11.80
2022-12-18T22:47:05.409Z,11.20
2022-12-18T22:49:34.958Z,11.73
2022-12-18T22:52:03.755Z,11.65
2022-12-18T22:54:30.764Z,12.13
2022-12-18T22:56:57.581Z,12.93
2022-12-18T22:59:24.304Z,12.57
2022-12-18T23:01:54.287Z,11.00
2022-12-18T23:04:35.916Z,10.88
2022-12-18T23:07:05.461Z,11.40
2022-12-18T23:09:33.065Z,11.57
2022-12-18T23:12:00.538Z,10.90
2022-12-18T23:16:53.735Z,11.18
2022-12-18T23:19:20.991Z,11.15
2022-12-18T23:21:50.133Z,10.82
2022-12-18T23:24:16.619Z,11.60
2022-12-18T23:26:43.766Z,11.68
2022-12-18T23:29:10.404Z,12.05
2022-12-18T23:31:39.098Z,11.10
2022-12-18T23:34:08.016Z,12.30
2022-12-18T23:36:46.610Z,12.55
2022-12-18T23:39:15.319Z,11.40
2022-12-18T23:41:56.670Z,11.18
2022-12-18T23:44:23.377Z,11.68
2022-12-18T23:46:50.117Z,12.18
2022-12-18T23:49:16.640Z,13.60
2022-12-18T23:51:43.577Z,12.55
2022-12-18T23:54:10.449Z,11.38
2022-12-18T23:56:37.131Z,11.88
2022-12-18T23:59:03.692Z,11.20
